YPGV/GOV METAR and TAF weather

Enter ICAO airport designator
Station Type Date Time Source
YPGV METAR 2019/06/27 08:00 UTC NOAA

YPGV 270800Z AUTO 17009KT 9999 // SCT016 BKN023 BKN030 24/21 Q1013


Station Type Date Time Source
YPGV Decoded METAR 2019/06/27 08:00 UTC NOAA

Station name not available
Jun 27, 2019 - 04:00 AM EDT / 2019.06.27 0800 UTC
Wind: from the S (170 degrees) at 10 MPH (9 KT):0
Visibility: greater than 7 mile(s):0
Sky conditions: mostly cloudy
Temperature: 75 F (24 C)
Dew Point: 69 F (21 C)
Relative Humidity: 83%
Pressure (altimeter): 29.91 in. Hg (1013 hPa)
ob: YPGV 270800Z AUTO 17009KT 9999 // SCT016 BKN023 BKN030 24/21 Q1013
cycle: 8

Station Type Date Time Source
YPGV TAF 2019/06/27 08:00 UTC NOAA

TAF YPGV 270609Z 2708/2720 16010KT 9999 SCT020

Example: see airport list